Ball, North Carolina
Current Conditions -  °F | °C
As of 3:15 AM on Monday 26 Jan 2015 (Local Time) from KGEV Reporting Station
Broken Clouds Broken Clouds  
Wind Chill: 36°   Ceiling: 8500
Heat Index: 36°   Visibility: 10mi
Dew Point: 28°   Wind: 0mph
Humidity: 70%   Direction: NA
Pressure: 29.61"   Gusts: NA
Location:  36.524°N, 81.538°W
Report Text: KGEV 260815Z AUTO 00000KT 10SM SCT045 BKN085 02/M02 A2961 RMK AO2 T00241025
Loading
Personal Weather Stations






























Interactive Weather Map New forecast layout! Learn more

10-Day Weather Forecast

Advertisements
Track Severe Weather on mobile